Terminal Aerodrome Forecast
Issued by NWS Sioux Falls, SD

Current Version | Previous Version | Text Only | Print | Product List | Glossary On
Versions: 1 2 3 4 5 6 7 8 9 10 11 12 13
000
FTUS43 KFSD 301122
TAFSUX
TAF
KSUX 301122Z 3012/0112 VRB03KT P6SM SKC
      TEMPO 3012/3014 5SM BR
     FM301800 10007KT P6SM FEW200
     FM010500 VRB03KT P6SM FEW100
     FM010900 VRB03KT P6SM BKN025=

USA.gov is the U.S. government's official web portal to all federal, state and local government web resources and services.